Gabriella — OJHP — position and weather

sailwx.info

Track history (hours):
 
Tides and Currents Weather Stations Pressure Air Temp Water Temp Dewpoint Dewpoint Depression Visibility Wind Speed Wind Dir Waves Ship Positions

Gabriella

Last reported at 2016-Jul-28 13:33 UTC. Time now 2016-Jul-28 16:24 UTC.
Position N 60°09' E 024°60'.

Length 172 m; draft 6.5 m.

Type: Passenger vessel. MMSI: 230361000.

Date/timePositionNaut miles runAvg speedWind from/ knotsBaromVisibWave heightAir tempDewpointWater temp
2016-Jul-28 13:33N 60°09' E 024°60'1818.3
2016-Jul-28 12:34N 59°51' E 024°52'1918.9
2016-Jul-28 11:33N 59°33' E 024°43'6 6.2
2016-Jul-28 10:33N 59°27' E 024°46'7 7.4
2016-Jul-28 09:33N 59°34' E 024°42'1919.1
2016-Jul-28 08:34N 59°52' E 024°53'12 4.1
2016-Jul-28 05:33N 60°04' E 024°58'1817.7
2016-Jul-28 04:33N 59°52' E 024°31'1918.7
2016-Jul-28 03:33N 59°46' E 023°56'1918.7
2016-Jul-28 02:33N 59°41' E 023°20'2718.4
2016-Jul-28 01:07N 59°37' E 022°28'1118.3
2016-Jul-28 00:30N 59°33' E 022°08'1818.5
2016-Jul-27 23:31N 59°33' E 021°32'10011.1
2016-Jul-27 14:32N 59°22' E 018°17'6 6.1
2016-Jul-27 13:29N 59°19' E 018°06'0 0.0
2016-Jul-27 12:26N 59°19' E 018°06'0 0.0
2016-Jul-27 11:32N 59°19' E 018°06'0 0.0
2016-Jul-27 10:29N 59°19' E 018°06'0 0.0
2016-Jul-27 09:32N 59°19' E 018°06'0 0.0
2016-Jul-27 08:32N 59°19' E 018°06'2 1.7
2016-Jul-27 07:26N 59°19' E 018°10'9110.1
2016-Jul-26 22:28N 59°38' E 021°05'1718.9
2016-Jul-26 21:33N 59°33' E 021°37'1918.6
2016-Jul-26 20:34N 59°34' E 022°14'2018.9
2016-Jul-26 19:29N 59°38' E 022°53'1718.7
2016-Jul-26 18:33N 59°41' E 023°27'2619.1
2016-Jul-26 17:13N 59°49' E 024°15'1719.0
2016-Jul-26 16:20N 59°56' E 024°45'1417.0
2016-Jul-26 15:31N 60°08' E 024°60'18 6.2
2016-Jul-26 12:33N 59°50' E 024°53'1918.8
2016-Jul-26 11:33N 59°32' E 024°44'5 5.3
2016-Jul-26 10:31N 59°27' E 024°46'8 8.1
2016-Jul-26 09:33N 59°34' E 024°41'2019.4
2016-Jul-26 08:33N 59°53' E 024°54'11 3.7
2016-Jul-26 05:31N 60°04' E 024°57'1717.8
2016-Jul-26 04:34N 59°53' E 024°31'1918.8
2016-Jul-26 03:34N 59°46' E 023°56'1918.8
2016-Jul-26 02:34N 59°41' E 023°20'1918.8
2016-Jul-26 01:34N 59°38' E 022°44'1918.8
2016-Jul-26 00:34N 59°33' E 022°08'1818.2
2016-Jul-25 23:34N 59°33' E 021°32'1919.1
2016-Jul-25 22:34N 59°36' E 020°55'1818.4
2016-Jul-25 21:34N 59°45' E 020°23'1918.2
2016-Jul-25 20:32N 59°57' E 019°56'6 5.6
2016-Jul-25 19:30N 60°03' E 019°54'2121.4
2016-Jul-25 18:33N 59°48' E 019°26'4011.9
2016-Jul-25 15:11N 59°22' E 018°27'610.4
2016-Jul-25 14:33N 59°21' E 018°14'5 2.2
2016-Jul-25 12:28N 59°19' E 018°06'0 0.0
2016-Jul-25 11:28N 59°19' E 018°06'0 0.0
2016-Jul-25 10:28N 59°19' E 018°06'0 0.0
2016-Jul-25 09:22N 59°19' E 018°06'0 0.0
2016-Jul-25 08:22N 59°19' E 018°06'1 1.6
2016-Jul-25 07:29N 59°19' E 018°09'6111.5
2016-Jul-25 02:12N 59°57' E 019°43'4912.3
2016-Jul-24 22:10N 59°37' E 021°13'1218.2
2016-Jul-24 21:30N 59°33' E 021°36'1717.8
2016-Jul-24 20:33N 59°33' E 022°09'2318.1
2016-Jul-24 19:18N 59°37' E 022°53'1418.6
2016-Jul-24 18:33N 59°40' E 023°20'1918.7
2016-Jul-24 17:33N 59°46' E 023°56'2018.4
2016-Jul-24 16:29N 59°53' E 024°32'10 2.5
2016-Jul-24 12:27N 59°50' E 024°51'1718.8
2016-Jul-24 11:33N 59°33' E 024°43'6 4.9
2016-Jul-24 10:13N 59°27' E 024°46'811.6
2016-Jul-24 09:33N 59°34' E 024°42'19 3.8
2016-Jul-24 04:32N 59°53' E 024°31'1818.2
2016-Jul-24 03:33N 59°46' E 023°58'1818.4
2016-Jul-24 02:33N 59°42' E 023°23'2219.2
2016-Jul-24 01:25N 59°37' E 022°40'1618.6
2016-Jul-24 00:33N 59°33' E 022°09'1818.5
2016-Jul-23 23:33N 59°33' E 021°33'10610.6
2016-Jul-23 13:33N 59°19' E 018°06'0 0.0
2016-Jul-23 12:31N 59°19' E 018°06'0 0.0
2016-Jul-23 11:31N 59°19' E 018°06'0 0.0
2016-Jul-23 10:33N 59°19' E 018°06'0 0.0
2016-Jul-23 09:30N 59°19' E 018°06'0 0.0
2016-Jul-23 08:33N 59°19' E 018°06'94 9.2
2016-Jul-22 22:23N 59°37' E 021°07'1618.8
2016-Jul-22 21:33N 59°33' E 021°37'4618.6
2016-Jul-22 19:06N 59°38' E 023°07'1019.2
2016-Jul-22 18:33N 59°41' E 023°26'1919.0
2016-Jul-22 17:33N 59°47' E 024°02'1918.8
2016-Jul-22 16:33N 59°54' E 024°37'9 2.2
2016-Jul-22 12:20N 59°48' E 024°50'1518.7
2016-Jul-22 11:33N 59°33' E 024°43'7 5.6
2016-Jul-22 10:19N 59°27' E 024°46'810.2
2016-Jul-22 09:33N 59°34' E 024°41'19 3.7
2016-Jul-22 04:27N 59°52' E 024°28'1618.4
2016-Jul-22 03:33N 59°46' E 023°57'1918.7
2016-Jul-22 02:33N 59°42' E 023°21'3818.7
2016-Jul-22 00:33N 59°33' E 022°09'1818.5
2016-Jul-21 23:33N 59°33' E 021°33'1918.7
2016-Jul-21 22:33N 59°37' E 020°57'8710.4
2016-Jul-21 14:12N 59°19' E 018°08'1 1.7
2016-Jul-21 13:33N 59°19' E 018°06'0 0.0
2016-Jul-21 10:33N 59°19' E 018°06'0 0.0
2016-Jul-21 09:21N 59°19' E 018°06'0 0.0
2016-Jul-21 08:27N 59°19' E 018°06'1 1.4
2016-Jul-21 07:27N 59°19' E 018°09'4110.2
2016-Jul-21 03:28N 59°44' E 019°12'1415.9
2016-Jul-21 02:34N 59°53' E 019°35'12 5.7
2016-Jul-21 00:30N 59°54' E 019°58'3718.2
2016-Jul-20 22:28N 59°38' E 021°05'1718.8
2016-Jul-20 21:33N 59°33' E 021°38'1918.4
2016-Jul-20 20:33N 59°34' E 022°14'2018.5
2016-Jul-20 19:29N 59°37' E 022°53'1718.9
2016-Jul-20 18:33N 59°41' E 023°26'1918.8
2016-Jul-20 17:33N 59°47' E 024°02'1918.6
2016-Jul-20 16:31N 59°54' E 024°37'10 2.4
2016-Jul-20 12:14N 59°46' E 024°49'1218.2
2016-Jul-20 11:33N 59°34' E 024°43'8 7.2
2016-Jul-20 10:29N 59°27' E 024°46'7 7.1
2016-Jul-20 09:33N 59°33' E 024°42'20 4.0
2016-Jul-20 04:33N 59°52' E 024°31'1918.6
2016-Jul-20 03:33N 59°46' E 023°56'1918.6
2016-Jul-20 02:33N 59°42' E 023°20'3718.6
2016-Jul-20 00:33N 59°33' E 022°08'1818.3
2016-Jul-19 23:33N 59°33' E 021°32'10011.1
2016-Jul-19 14:33N 59°22' E 018°17'6 2.1
2016-Jul-19 11:30N 59°19' E 018°06'0 0.0
2016-Jul-19 10:09N 59°19' E 018°06'0 0.0
2016-Jul-19 09:27N 59°19' E 018°06'0 0.0
2016-Jul-19 08:18N 59°19' E 018°06'1 1.1
2016-Jul-19 07:33N 59°19' E 018°07'9210.1
2016-Jul-18 22:28N 59°38' E 021°04'1718.8
2016-Jul-18 21:33N 59°33' E 021°36'2618.6
2016-Jul-18 20:08N 59°35' E 022°28'1218.8
2016-Jul-18 19:28N 59°37' E 022°52'1719.0
2016-Jul-18 18:33N 59°41' E 023°26'1918.8
2016-Jul-18 17:33N 59°47' E 024°02'1918.6
2016-Jul-18 16:33N 59°54' E 024°36'1717.1
2016-Jul-18 15:33N 60°07' E 024°59'  
Track history (hours):
 
Tides and Currents Weather Stations Pressure Air Temp Water Temp Dewpoint Dewpoint Depression Visibility Wind Speed Wind Dir Waves Ship Positions

Gabriella

Last reported at 2016-Jul-28 13:33 UTC. Time now 2016-Jul-28 16:24 UTC.
Position N 60°09' E 024°60'.

Length 172 m; draft 6.5 m.

Type: Passenger vessel. MMSI: 230361000.

Date/timePositionNaut miles runAvg speedWind from/ knotsBaromVisibWave heightAir tempDewpointWater temp
2016-Jul-28 13:33N 60°09' E 024°60'1818.3
2016-Jul-28 12:34N 59°51' E 024°52'1918.9
2016-Jul-28 11:33N 59°33' E 024°43'6 6.2
2016-Jul-28 10:33N 59°27' E 024°46'7 7.4
2016-Jul-28 09:33N 59°34' E 024°42'1919.1
2016-Jul-28 08:34N 59°52' E 024°53'12 4.1
2016-Jul-28 05:33N 60°04' E 024°58'1817.7
2016-Jul-28 04:33N 59°52' E 024°31'1918.7
2016-Jul-28 03:33N 59°46' E 023°56'1918.7
2016-Jul-28 02:33N 59°41' E 023°20'2718.4
2016-Jul-28 01:07N 59°37' E 022°28'1118.3
2016-Jul-28 00:30N 59°33' E 022°08'1818.5
2016-Jul-27 23:31N 59°33' E 021°32'10011.1
2016-Jul-27 14:32N 59°22' E 018°17'6 6.1
2016-Jul-27 13:29N 59°19' E 018°06'0 0.0
2016-Jul-27 12:26N 59°19' E 018°06'0 0.0
2016-Jul-27 11:32N 59°19' E 018°06'0 0.0
2016-Jul-27 10:29N 59°19' E 018°06'0 0.0
2016-Jul-27 09:32N 59°19' E 018°06'0 0.0
2016-Jul-27 08:32N 59°19' E 018°06'2 1.7
2016-Jul-27 07:26N 59°19' E 018°10'9110.1
2016-Jul-26 22:28N 59°38' E 021°05'1718.9
2016-Jul-26 21:33N 59°33' E 021°37'1918.6
2016-Jul-26 20:34N 59°34' E 022°14'2018.9
2016-Jul-26 19:29N 59°38' E 022°53'1718.7
2016-Jul-26 18:33N 59°41' E 023°27'2619.1
2016-Jul-26 17:13N 59°49' E 024°15'1719.0
2016-Jul-26 16:20N 59°56' E 024°45'1417.0
2016-Jul-26 15:31N 60°08' E 024°60'18 6.2
2016-Jul-26 12:33N 59°50' E 024°53'1918.8
2016-Jul-26 11:33N 59°32' E 024°44'5 5.3
2016-Jul-26 10:31N 59°27' E 024°46'8 8.1
2016-Jul-26 09:33N 59°34' E 024°41'2019.4
2016-Jul-26 08:33N 59°53' E 024°54'11 3.7
2016-Jul-26 05:31N 60°04' E 024°57'1717.8
2016-Jul-26 04:34N 59°53' E 024°31'1918.8
2016-Jul-26 03:34N 59°46' E 023°56'1918.8
2016-Jul-26 02:34N 59°41' E 023°20'1918.8
2016-Jul-26 01:34N 59°38' E 022°44'1918.8
2016-Jul-26 00:34N 59°33' E 022°08'1818.2
2016-Jul-25 23:34N 59°33' E 021°32'1919.1
2016-Jul-25 22:34N 59°36' E 020°55'1818.4
2016-Jul-25 21:34N 59°45' E 020°23'1918.2
2016-Jul-25 20:32N 59°57' E 019°56'6 5.6
2016-Jul-25 19:30N 60°03' E 019°54'2121.4
2016-Jul-25 18:33N 59°48' E 019°26'4011.9
2016-Jul-25 15:11N 59°22' E 018°27'610.4
2016-Jul-25 14:33N 59°21' E 018°14'5 2.2
2016-Jul-25 12:28N 59°19' E 018°06'0 0.0
2016-Jul-25 11:28N 59°19' E 018°06'0 0.0
2016-Jul-25 10:28N 59°19' E 018°06'0 0.0
2016-Jul-25 09:22N 59°19' E 018°06'0 0.0
2016-Jul-25 08:22N 59°19' E 018°06'1 1.6
2016-Jul-25 07:29N 59°19' E 018°09'6111.5
2016-Jul-25 02:12N 59°57' E 019°43'4912.3
2016-Jul-24 22:10N 59°37' E 021°13'1218.2
2016-Jul-24 21:30N 59°33' E 021°36'1717.8
2016-Jul-24 20:33N 59°33' E 022°09'2318.1
2016-Jul-24 19:18N 59°37' E 022°53'1418.6
2016-Jul-24 18:33N 59°40' E 023°20'1918.7
2016-Jul-24 17:33N 59°46' E 023°56'2018.4
2016-Jul-24 16:29N 59°53' E 024°32'10 2.5
2016-Jul-24 12:27N 59°50' E 024°51'1718.8
2016-Jul-24 11:33N 59°33' E 024°43'6 4.9
2016-Jul-24 10:13N 59°27' E 024°46'811.6
2016-Jul-24 09:33N 59°34' E 024°42'19 3.8
2016-Jul-24 04:32N 59°53' E 024°31'1818.2
2016-Jul-24 03:33N 59°46' E 023°58'1818.4
2016-Jul-24 02:33N 59°42' E 023°23'2219.2
2016-Jul-24 01:25N 59°37' E 022°40'1618.6
2016-Jul-24 00:33N 59°33' E 022°09'1818.5
2016-Jul-23 23:33N 59°33' E 021°33'10610.6
2016-Jul-23 13:33N 59°19' E 018°06'0 0.0
2016-Jul-23 12:31N 59°19' E 018°06'0 0.0
2016-Jul-23 11:31N 59°19' E 018°06'0 0.0
2016-Jul-23 10:33N 59°19' E 018°06'0 0.0
2016-Jul-23 09:30N 59°19' E 018°06'0 0.0
2016-Jul-23 08:33N 59°19' E 018°06'94 9.2
2016-Jul-22 22:23N 59°37' E 021°07'1618.8
2016-Jul-22 21:33N 59°33' E 021°37'4618.6
2016-Jul-22 19:06N 59°38' E 023°07'1019.2
2016-Jul-22 18:33N 59°41' E 023°26'1919.0
2016-Jul-22 17:33N 59°47' E 024°02'1918.8
2016-Jul-22 16:33N 59°54' E 024°37'9 2.2
2016-Jul-22 12:20N 59°48' E 024°50'1518.7
2016-Jul-22 11:33N 59°33' E 024°43'7 5.6
2016-Jul-22 10:19N 59°27' E 024°46'810.2
2016-Jul-22 09:33N 59°34' E 024°41'19 3.7
2016-Jul-22 04:27N 59°52' E 024°28'1618.4
2016-Jul-22 03:33N 59°46' E 023°57'1918.7
2016-Jul-22 02:33N 59°42' E 023°21'3818.7
2016-Jul-22 00:33N 59°33' E 022°09'1818.5
2016-Jul-21 23:33N 59°33' E 021°33'1918.7
2016-Jul-21 22:33N 59°37' E 020°57'8710.4
2016-Jul-21 14:12N 59°19' E 018°08'1 1.7
2016-Jul-21 13:33N 59°19' E 018°06'0 0.0
2016-Jul-21 10:33N 59°19' E 018°06'0 0.0
2016-Jul-21 09:21N 59°19' E 018°06'0 0.0
2016-Jul-21 08:27N 59°19' E 018°06'1 1.4
2016-Jul-21 07:27N 59°19' E 018°09'4110.2
2016-Jul-21 03:28N 59°44' E 019°12'1415.9
2016-Jul-21 02:34N 59°53' E 019°35'12 5.7
2016-Jul-21 00:30N 59°54' E 019°58'3718.2
2016-Jul-20 22:28N 59°38' E 021°05'1718.8
2016-Jul-20 21:33N 59°33' E 021°38'1918.4
2016-Jul-20 20:33N 59°34' E 022°14'2018.5
2016-Jul-20 19:29N 59°37' E 022°53'1718.9
2016-Jul-20 18:33N 59°41' E 023°26'1918.8
2016-Jul-20 17:33N 59°47' E 024°02'1918.6
2016-Jul-20 16:31N 59°54' E 024°37'10 2.4
2016-Jul-20 12:14N 59°46' E 024°49'1218.2
2016-Jul-20 11:33N 59°34' E 024°43'8 7.2
2016-Jul-20 10:29N 59°27' E 024°46'7 7.1
2016-Jul-20 09:33N 59°33' E 024°42'20 4.0
2016-Jul-20 04:33N 59°52' E 024°31'1918.6
2016-Jul-20 03:33N 59°46' E 023°56'1918.6
2016-Jul-20 02:33N 59°42' E 023°20'3718.6
2016-Jul-20 00:33N 59°33' E 022°08'1818.3
2016-Jul-19 23:33N 59°33' E 021°32'10011.1
2016-Jul-19 14:33N 59°22' E 018°17'6 2.1
2016-Jul-19 11:30N 59°19' E 018°06'0 0.0
2016-Jul-19 10:09N 59°19' E 018°06'0 0.0
2016-Jul-19 09:27N 59°19' E 018°06'0 0.0
2016-Jul-19 08:18N 59°19' E 018°06'1 1.1
2016-Jul-19 07:33N 59°19' E 018°07'9210.1
2016-Jul-18 22:28N 59°38' E 021°04'1718.8
2016-Jul-18 21:33N 59°33' E 021°36'2618.6
2016-Jul-18 20:08N 59°35' E 022°28'1218.8
2016-Jul-18 19:28N 59°37' E 022°52'1719.0
2016-Jul-18 18:33N 59°41' E 023°26'1918.8
2016-Jul-18 17:33N 59°47' E 024°02'1918.6
2016-Jul-18 16:33N 59°54' E 024°36'1717.1
2016-Jul-18 15:33N 60°07' E 024°59'  

Dump ship's entire track history